Kenema Airport

Jump to: basic info | weather | comments

Related pages: nearby airports | nearby navaids | notams | map

Basic information (top)

Codes: KEN GFKE
Location: lon 7.891290, lat -11.176600, elev 485 ft / 148 m msl
Status: medium_airport
Scheduled airline service: yes
Links: Wikipedia Mobile

Weather (top)

Current conditions for Roberts International Airport 111nm (205km) SSE (rec'd 2014/04/19 09:00Z):

GLRB 190900Z 01007KT 9999 BKN015 FEW025CB 27/23 Q1012 RMK CB-SE

Airport forecast for Roberts International Airport 111nm (205km) SSE (rec'd 2014/04/19 06:51Z):

TAF TAF GLRB 190400Z 1906/2012 23010KT 9999 BKN015 
      BECMG 1907/1909 07005KT 9000 
      TEMPO 1910/1914 24012KT 8000 -RA/TSRA BKN016 FEW025CB 
      BECMG 1915/1917 23009KT 9999

Latest comments (top)

No comments yet for Kenema Airport

More... (top)

See also NOTAMs and nearby airports and navaids, or visit the Kenema Airport page at the main OurAirports website..